sensor_id;sensor_type;location;lat;lon;timestamp;P1;durP1;ratioP1;P2;durP2;ratioP2
14768;SDS011;7476;49.404;11.152;2023-08-31T00:01:09;5.57;;;4.00;;
14768;SDS011;7476;49.404;11.152;2023-08-31T00:03:35;4.43;;;3.90;;
14768;SDS011;7476;49.404;11.152;2023-08-31T00:06:02;3.60;;;3.30;;
14768;SDS011;7476;49.404;11.152;2023-08-31T00:08:29;4.10;;;3.80;;
14768;SDS011;7476;49.404;11.152;2023-08-31T00:10:56;4.50;;;4.10;;
14768;SDS011;7476;49.404;11.152;2023-08-31T00:13:24;5.67;;;3.90;;
14768;SDS011;7476;49.404;11.152;2023-08-31T00:15:53;4.67;;;3.63;;
14768;SDS011;7476;49.404;11.152;2023-08-31T00:18:21;4.20;;;3.80;;
14768;SDS011;7476;49.404;11.152;2023-08-31T00:20:47;4.33;;;3.93;;
14768;SDS011;7476;49.404;11.152;2023-08-31T00:23:14;4.10;;;3.70;;
14768;SDS011;7476;49.404;11.152;2023-08-31T00:25:41;5.67;;;3.73;;
14768;SDS011;7476;49.404;11.152;2023-08-31T00:28:08;5.63;;;3.83;;
14768;SDS011;7476;49.404;11.152;2023-08-31T00:30:36;7.77;;;4.07;;
14768;SDS011;7476;49.404;11.152;2023-08-31T00:33:03;5.07;;;3.80;;
14768;SDS011;7476;49.404;11.152;2023-08-31T00:35:30;4.00;;;3.60;;
14768;SDS011;7476;49.404;11.152;2023-08-31T00:37:56;6.03;;;3.90;;
14768;SDS011;7476;49.404;11.152;2023-08-31T00:40:24;5.17;;;4.10;;
14768;SDS011;7476;49.404;11.152;2023-08-31T00:42:50;4.43;;;3.80;;
14768;SDS011;7476;49.404;11.152;2023-08-31T00:45:17;4.73;;;4.13;;
14768;SDS011;7476;49.404;11.152;2023-08-31T00:47:46;4.30;;;3.90;;
14768;SDS011;7476;49.404;11.152;2023-08-31T00:50:14;4.17;;;3.77;;
14768;SDS011;7476;49.404;11.152;2023-08-31T00:52:41;4.40;;;4.00;;
14768;SDS011;7476;49.404;11.152;2023-08-31T00:55:09;6.13;;;3.80;;
14768;SDS011;7476;49.404;11.152;2023-08-31T00:57:36;4.30;;;3.90;;
14768;SDS011;7476;49.404;11.152;2023-08-31T01:00:03;4.30;;;3.83;;
14768;SDS011;7476;49.404;11.152;2023-08-31T01:02:34;4.03;;;3.43;;
14768;SDS011;7476;49.404;11.152;2023-08-31T01:05:08;4.03;;;3.63;;
14768;SDS011;7476;49.404;11.152;2023-08-31T01:07:41;4.80;;;3.80;;
14768;SDS011;7476;49.404;11.152;2023-08-31T01:10:18;4.73;;;3.57;;
14768;SDS011;7476;49.404;11.152;2023-08-31T01:12:52;4.47;;;3.80;;
14768;SDS011;7476;49.404;11.152;2023-08-31T01:15:24;3.93;;;3.60;;
14768;SDS011;7476;49.404;11.152;2023-08-31T01:17:54;4.37;;;3.97;;
14768;SDS011;7476;49.404;11.152;2023-08-31T01:20:26;4.60;;;4.10;;
14768;SDS011;7476;49.404;11.152;2023-08-31T01:22:59;4.30;;;3.90;;
14768;SDS011;7476;49.404;11.152;2023-08-31T01:25:30;4.13;;;3.73;;
14768;SDS011;7476;49.404;11.152;2023-08-31T01:27:58;4.23;;;3.80;;
14768;SDS011;7476;49.404;11.152;2023-08-31T01:30:29;4.07;;;3.73;;
14768;SDS011;7476;49.404;11.152;2023-08-31T01:32:56;4.47;;;3.57;;
14768;SDS011;7476;49.404;11.152;2023-08-31T01:35:22;4.20;;;3.90;;
14768;SDS011;7476;49.404;11.152;2023-08-31T01:37:50;5.23;;;3.93;;
14768;SDS011;7476;49.404;11.152;2023-08-31T01:40:20;5.30;;;3.70;;
14768;SDS011;7476;49.404;11.152;2023-08-31T01:42:52;4.30;;;3.80;;
14768;SDS011;7476;49.404;11.152;2023-08-31T01:45:21;5.47;;;3.93;;
14768;SDS011;7476;49.404;11.152;2023-08-31T01:47:49;4.97;;;4.30;;
14768;SDS011;7476;49.404;11.152;2023-08-31T01:50:16;4.40;;;3.63;;
14768;SDS011;7476;49.404;11.152;2023-08-31T01:52:42;4.77;;;3.97;;
14768;SDS011;7476;49.404;11.152;2023-08-31T01:55:09;4.43;;;4.03;;
14768;SDS011;7476;49.404;11.152;2023-08-31T01:57:38;4.70;;;4.00;;
14768;SDS011;7476;49.404;11.152;2023-08-31T02:00:07;4.30;;;3.90;;
14768;SDS011;7476;49.404;11.152;2023-08-31T02:02:34;4.93;;;3.50;;
14768;SDS011;7476;49.404;11.152;2023-08-31T02:05:01;5.53;;;3.97;;
14768;SDS011;7476;49.404;11.152;2023-08-31T02:07:29;4.33;;;3.93;;
14768;SDS011;7476;49.404;11.152;2023-08-31T02:09:56;3.90;;;3.60;;
14768;SDS011;7476;49.404;11.152;2023-08-31T02:12:23;4.87;;;3.97;;
14768;SDS011;7476;49.404;11.152;2023-08-31T02:14:49;3.90;;;3.50;;
14768;SDS011;7476;49.404;11.152;2023-08-31T02:17:18;4.70;;;4.07;;
14768;SDS011;7476;49.404;11.152;2023-08-31T02:19:45;4.33;;;3.93;;
14768;SDS011;7476;49.404;11.152;2023-08-31T02:22:12;5.50;;;3.70;;
14768;SDS011;7476;49.404;11.152;2023-08-31T02:24:38;4.07;;;3.67;;
14768;SDS011;7476;49.404;11.152;2023-08-31T02:27:05;4.30;;;3.90;;
14768;SDS011;7476;49.404;11.152;2023-08-31T02:29:31;4.30;;;3.90;;
14768;SDS011;7476;49.404;11.152;2023-08-31T02:31:58;4.67;;;3.67;;
14768;SDS011;7476;49.404;11.152;2023-08-31T02:34:26;4.20;;;3.80;;
14768;SDS011;7476;49.404;11.152;2023-08-31T02:36:53;5.03;;;4.37;;
14768;SDS011;7476;49.404;11.152;2023-08-31T02:39:19;4.60;;;4.20;;
14768;SDS011;7476;49.404;11.152;2023-08-31T02:41:46;4.50;;;4.10;;
14768;SDS011;7476;49.404;11.152;2023-08-31T02:44:13;4.87;;;4.40;;
14768;SDS011;7476;49.404;11.152;2023-08-31T02:46:39;5.37;;;4.20;;
14768;SDS011;7476;49.404;11.152;2023-08-31T02:49:06;5.40;;;4.20;;
14768;SDS011;7476;49.404;11.152;2023-08-31T02:51:34;4.30;;;3.90;;
14768;SDS011;7476;49.404;11.152;2023-08-31T02:54:00;5.13;;;3.87;;
14768;SDS011;7476;49.404;11.152;2023-08-31T02:56:28;5.57;;;4.30;;
14768;SDS011;7476;49.404;11.152;2023-08-31T02:58:55;4.37;;;3.97;;
14768;SDS011;7476;49.404;11.152;2023-08-31T03:01:21;6.40;;;4.07;;
14768;SDS011;7476;49.404;11.152;2023-08-31T03:03:49;4.93;;;4.13;;
14768;SDS011;7476;49.404;11.152;2023-08-31T03:06:16;6.40;;;4.10;;
14768;SDS011;7476;49.404;11.152;2023-08-31T03:08:44;4.47;;;3.83;;
14768;SDS011;7476;49.404;11.152;2023-08-31T03:11:11;4.13;;;3.77;;
14768;SDS011;7476;49.404;11.152;2023-08-31T03:13:39;4.53;;;4.13;;
14768;SDS011;7476;49.404;11.152;2023-08-31T03:16:05;5.77;;;4.30;;
14768;SDS011;7476;49.404;11.152;2023-08-31T03:18:32;4.27;;;3.90;;
14768;SDS011;7476;49.404;11.152;2023-08-31T03:20:59;4.53;;;4.13;;
14768;SDS011;7476;49.404;11.152;2023-08-31T03:23:26;5.50;;;4.23;;
14768;SDS011;7476;49.404;11.152;2023-08-31T03:25:54;4.90;;;4.40;;
14768;SDS011;7476;49.404;11.152;2023-08-31T03:28:20;4.47;;;4.07;;
14768;SDS011;7476;49.404;11.152;2023-08-31T03:30:53;4.43;;;4.03;;
14768;SDS011;7476;49.404;11.152;2023-08-31T03:33:20;4.33;;;3.93;;
14768;SDS011;7476;49.404;11.152;2023-08-31T03:35:47;5.03;;;3.97;;
14768;SDS011;7476;49.404;11.152;2023-08-31T03:38:14;4.60;;;4.20;;
14768;SDS011;7476;49.404;11.152;2023-08-31T03:40:40;4.40;;;4.00;;
14768;SDS011;7476;49.404;11.152;2023-08-31T03:43:08;4.97;;;4.30;;
14768;SDS011;7476;49.404;11.152;2023-08-31T03:45:35;5.00;;;4.50;;
14768;SDS011;7476;49.404;11.152;2023-08-31T03:48:01;5.30;;;4.40;;
14768;SDS011;7476;49.404;11.152;2023-08-31T03:50:28;6.73;;;4.80;;
14768;SDS011;7476;49.404;11.152;2023-08-31T03:52:55;5.10;;;4.60;;
14768;SDS011;7476;49.404;11.152;2023-08-31T03:55:21;5.30;;;4.90;;
14768;SDS011;7476;49.404;11.152;2023-08-31T03:57:48;5.33;;;4.83;;
14768;SDS011;7476;49.404;11.152;2023-08-31T04:00:16;5.47;;;5.00;;
14768;SDS011;7476;49.404;11.152;2023-08-31T04:02:43;4.90;;;4.50;;
14768;SDS011;7476;49.404;11.152;2023-08-31T04:05:10;5.27;;;4.67;;
14768;SDS011;7476;49.404;11.152;2023-08-31T04:07:36;5.53;;;5.00;;
14768;SDS011;7476;49.404;11.152;2023-08-31T04:10:03;5.50;;;4.67;;
14768;SDS011;7476;49.404;11.152;2023-08-31T04:12:30;5.80;;;5.13;;
14768;SDS011;7476;49.404;11.152;2023-08-31T04:14:57;5.73;;;5.23;;
14768;SDS011;7476;49.404;11.152;2023-08-31T04:17:25;5.43;;;4.93;;
14768;SDS011;7476;49.404;11.152;2023-08-31T04:19:52;6.27;;;5.67;;
14768;SDS011;7476;49.404;11.152;2023-08-31T04:22:19;5.17;;;4.77;;
14768;SDS011;7476;49.404;11.152;2023-08-31T04:24:46;5.87;;;5.30;;
14768;SDS011;7476;49.404;11.152;2023-08-31T04:27:13;6.60;;;6.00;;
14768;SDS011;7476;49.404;11.152;2023-08-31T04:29:39;6.80;;;5.90;;
14768;SDS011;7476;49.404;11.152;2023-08-31T04:32:06;6.37;;;5.47;;
14768;SDS011;7476;49.404;11.152;2023-08-31T04:34:34;5.87;;;5.27;;
14768;SDS011;7476;49.404;11.152;2023-08-31T04:37:00;5.63;;;5.13;;
14768;SDS011;7476;49.404;11.152;2023-08-31T04:39:27;5.87;;;5.30;;
14768;SDS011;7476;49.404;11.152;2023-08-31T04:41:54;6.53;;;5.93;;
14768;SDS011;7476;49.404;11.152;2023-08-31T04:44:20;6.30;;;5.70;;
14768;SDS011;7476;49.404;11.152;2023-08-31T04:46:47;6.40;;;5.80;;
14768;SDS011;7476;49.404;11.152;2023-08-31T04:49:14;6.13;;;5.53;;
14768;SDS011;7476;49.404;11.152;2023-08-31T04:51:43;6.27;;;5.67;;
14768;SDS011;7476;49.404;11.152;2023-08-31T04:54:10;6.73;;;5.70;;
14768;SDS011;7476;49.404;11.152;2023-08-31T04:56:37;7.87;;;6.63;;
14768;SDS011;7476;49.404;11.152;2023-08-31T04:59:03;6.83;;;6.20;;
14768;SDS011;7476;49.404;11.152;2023-08-31T05:01:30;8.93;;;7.10;;
14768;SDS011;7476;49.404;11.152;2023-08-31T05:03:57;8.23;;;7.00;;
14768;SDS011;7476;49.404;11.152;2023-08-31T05:06:24;7.50;;;6.80;;
14768;SDS011;7476;49.404;11.152;2023-08-31T05:08:52;8.63;;;7.50;;
14768;SDS011;7476;49.404;11.152;2023-08-31T05:11:18;10.43;;;7.93;;
14768;SDS011;7476;49.404;11.152;2023-08-31T05:13:46;7.40;;;6.80;;
14768;SDS011;7476;49.404;11.152;2023-08-31T05:16:13;8.23;;;7.43;;
14768;SDS011;7476;49.404;11.152;2023-08-31T05:18:40;9.23;;;8.33;;
14768;SDS011;7476;49.404;11.152;2023-08-31T05:21:07;8.83;;;7.93;;
14768;SDS011;7476;49.404;11.152;2023-08-31T05:23:33;8.97;;;8.07;;
14768;SDS011;7476;49.404;11.152;2023-08-31T05:26:01;11.80;;;8.20;;
14768;SDS011;7476;49.404;11.152;2023-08-31T05:28:28;8.67;;;7.87;;
14768;SDS011;7476;49.404;11.152;2023-08-31T05:30:55;9.30;;;8.40;;
14768;SDS011;7476;49.404;11.152;2023-08-31T05:33:23;10.03;;;8.13;;
14768;SDS011;7476;49.404;11.152;2023-08-31T05:35:52;13.60;;;8.53;;
14768;SDS011;7476;49.404;11.152;2023-08-31T05:38:19;12.10;;;9.40;;
14768;SDS011;7476;49.404;11.152;2023-08-31T05:40:46;11.90;;;8.30;;
14768;SDS011;7476;49.404;11.152;2023-08-31T05:43:14;10.97;;;9.87;;
14768;SDS011;7476;49.404;11.152;2023-08-31T05:45:41;11.03;;;9.60;;
14768;SDS011;7476;49.404;11.152;2023-08-31T05:48:08;9.17;;;8.30;;
14768;SDS011;7476;49.404;11.152;2023-08-31T05:50:35;9.93;;;8.27;;
14768;SDS011;7476;49.404;11.152;2023-08-31T05:53:02;10.77;;;8.53;;
14768;SDS011;7476;49.404;11.152;2023-08-31T05:55:30;10.73;;;9.67;;
14768;SDS011;7476;49.404;11.152;2023-08-31T05:57:57;11.63;;;10.50;;
14768;SDS011;7476;49.404;11.152;2023-08-31T06:00:26;10.20;;;9.20;;
14768;SDS011;7476;49.404;11.152;2023-08-31T06:02:53;12.37;;;10.20;;
14768;SDS011;7476;49.404;11.152;2023-08-31T06:05:20;10.40;;;9.40;;
14768;SDS011;7476;49.404;11.152;2023-08-31T06:07:46;10.80;;;8.57;;
14768;SDS011;7476;49.404;11.152;2023-08-31T06:10:13;10.63;;;8.63;;
14768;SDS011;7476;49.404;11.152;2023-08-31T06:12:40;9.57;;;8.63;;
14768;SDS011;7476;49.404;11.152;2023-08-31T06:15:07;11.30;;;8.53;;
14768;SDS011;7476;49.404;11.152;2023-08-31T06:17:35;10.40;;;8.83;;
14768;SDS011;7476;49.404;11.152;2023-08-31T06:20:02;9.90;;;8.93;;
14768;SDS011;7476;49.404;11.152;2023-08-31T06:22:30;10.00;;;9.00;;
14768;SDS011;7476;49.404;11.152;2023-08-31T06:24:56;9.10;;;8.20;;
14768;SDS011;7476;49.404;11.152;2023-08-31T06:27:23;9.17;;;8.37;;
14768;SDS011;7476;49.404;11.152;2023-08-31T06:29:50;8.27;;;7.47;;
14768;SDS011;7476;49.404;11.152;2023-08-31T06:32:17;8.87;;;8.00;;
14768;SDS011;7476;49.404;11.152;2023-08-31T06:34:45;10.17;;;8.10;;
14768;SDS011;7476;49.404;11.152;2023-08-31T06:37:12;9.53;;;8.50;;
14768;SDS011;7476;49.404;11.152;2023-08-31T06:39:38;9.40;;;8.57;;
14768;SDS011;7476;49.404;11.152;2023-08-31T06:42:06;9.30;;;8.37;;
14768;SDS011;7476;49.404;11.152;2023-08-31T06:44:32;11.17;;;10.03;;
14768;SDS011;7476;49.404;11.152;2023-08-31T06:47:00;10.37;;;8.93;;
14768;SDS011;7476;49.404;11.152;2023-08-31T06:49:26;10.23;;;8.27;;
14768;SDS011;7476;49.404;11.152;2023-08-31T06:51:56;7.73;;;7.03;;
14768;SDS011;7476;49.404;11.152;2023-08-31T06:54:23;7.00;;;6.30;;
14768;SDS011;7476;49.404;11.152;2023-08-31T06:56:49;7.33;;;6.33;;
14768;SDS011;7476;49.404;11.152;2023-08-31T06:59:16;6.80;;;5.93;;
14768;SDS011;7476;49.404;11.152;2023-08-31T07:01:42;6.80;;;5.60;;
14768;SDS011;7476;49.404;11.152;2023-08-31T07:04:09;7.17;;;6.47;;
14768;SDS011;7476;49.404;11.152;2023-08-31T07:06:36;6.77;;;5.97;;
14768;SDS011;7476;49.404;11.152;2023-08-31T07:09:04;6.33;;;5.40;;
14768;SDS011;7476;49.404;11.152;2023-08-31T07:11:33;6.40;;;5.73;;
14768;SDS011;7476;49.404;11.152;2023-08-31T07:13:59;9.70;;;5.70;;
14768;SDS011;7476;49.404;11.152;2023-08-31T07:16:26;6.63;;;5.20;;
14768;SDS011;7476;49.404;11.152;2023-08-31T07:18:53;5.87;;;4.80;;
14768;SDS011;7476;49.404;11.152;2023-08-31T07:21:20;5.63;;;4.87;;
14768;SDS011;7476;49.404;11.152;2023-08-31T07:23:47;6.20;;;4.70;;
14768;SDS011;7476;49.404;11.152;2023-08-31T07:26:15;5.10;;;4.47;;
14768;SDS011;7476;49.404;11.152;2023-08-31T07:28:42;6.97;;;4.87;;
14768;SDS011;7476;49.404;11.152;2023-08-31T07:31:09;5.50;;;4.67;;
14768;SDS011;7476;49.404;11.152;2023-08-31T07:33:36;5.03;;;3.73;;
14768;SDS011;7476;49.404;11.152;2023-08-31T07:36:03;5.30;;;3.97;;
14768;SDS011;7476;49.404;11.152;2023-08-31T07:38:31;5.90;;;4.10;;
14768;SDS011;7476;49.404;11.152;2023-08-31T07:40:58;5.07;;;3.67;;
14768;SDS011;7476;49.404;11.152;2023-08-31T07:43:27;4.43;;;3.90;;
14768;SDS011;7476;49.404;11.152;2023-08-31T07:45:54;5.40;;;3.57;;
14768;SDS011;7476;49.404;11.152;2023-08-31T07:48:21;4.47;;;3.20;;
14768;SDS011;7476;49.404;11.152;2023-08-31T07:50:49;6.43;;;3.80;;
14768;SDS011;7476;49.404;11.152;2023-08-31T07:53:15;4.30;;;3.30;;
14768;SDS011;7476;49.404;11.152;2023-08-31T07:55:50;4.00;;;3.00;;
14768;SDS011;7476;49.404;11.152;2023-08-31T07:58:19;7.27;;;3.50;;
14768;SDS011;7476;49.404;11.152;2023-08-31T08:00:47;7.03;;;3.60;;
14768;SDS011;7476;49.404;11.152;2023-08-31T08:03:14;5.77;;;3.90;;
14768;SDS011;7476;49.404;11.152;2023-08-31T08:05:40;3.93;;;3.00;;
14768;SDS011;7476;49.404;11.152;2023-08-31T08:08:07;3.27;;;2.80;;
14768;SDS011;7476;49.404;11.152;2023-08-31T08:10:34;3.77;;;2.53;;
14768;SDS011;7476;49.404;11.152;2023-08-31T08:13:00;4.23;;;2.93;;
14768;SDS011;7476;49.404;11.152;2023-08-31T08:15:27;5.03;;;2.57;;
14768;SDS011;7476;49.404;11.152;2023-08-31T08:17:55;6.37;;;2.50;;
14768;SDS011;7476;49.404;11.152;2023-08-31T08:20:22;5.27;;;2.97;;
14768;SDS011;7476;49.404;11.152;2023-08-31T08:22:49;3.07;;;2.37;;
14768;SDS011;7476;49.404;11.152;2023-08-31T08:25:17;4.70;;;2.83;;
14768;SDS011;7476;49.404;11.152;2023-08-31T08:27:44;3.70;;;2.40;;
14768;SDS011;7476;49.404;11.152;2023-08-31T08:30:11;4.07;;;2.40;;
14768;SDS011;7476;49.404;11.152;2023-08-31T08:32:39;2.70;;;2.47;;
14768;SDS011;7476;49.404;11.152;2023-08-31T08:35:07;4.20;;;2.50;;
14768;SDS011;7476;49.404;11.152;2023-08-31T08:37:34;3.03;;;2.60;;
14768;SDS011;7476;49.404;11.152;2023-08-31T08:40:01;5.07;;;2.47;;
14768;SDS011;7476;49.404;11.152;2023-08-31T08:42:29;4.67;;;2.80;;
14768;SDS011;7476;49.404;11.152;2023-08-31T08:44:56;3.67;;;2.60;;
14768;SDS011;7476;49.404;11.152;2023-08-31T08:47:24;3.07;;;2.40;;
14768;SDS011;7476;49.404;11.152;2023-08-31T08:49:51;5.77;;;2.33;;
14768;SDS011;7476;49.404;11.152;2023-08-31T08:52:21;3.33;;;2.30;;
14768;SDS011;7476;49.404;11.152;2023-08-31T08:54:48;2.67;;;2.03;;
14768;SDS011;7476;49.404;11.152;2023-08-31T08:57:15;4.67;;;2.33;;
14768;SDS011;7476;49.404;11.152;2023-08-31T08:59:42;4.60;;;2.43;;
14768;SDS011;7476;49.404;11.152;2023-08-31T09:02:10;3.90;;;2.40;;
14768;SDS011;7476;49.404;11.152;2023-08-31T09:04:37;5.13;;;2.80;;
14768;SDS011;7476;49.404;11.152;2023-08-31T09:07:04;3.17;;;2.20;;
14768;SDS011;7476;49.404;11.152;2023-08-31T09:09:32;3.53;;;2.30;;
14768;SDS011;7476;49.404;11.152;2023-08-31T09:12:14;4.37;;;2.17;;
14768;SDS011;7476;49.404;11.152;2023-08-31T09:14:40;3.43;;;1.83;;
14768;SDS011;7476;49.404;11.152;2023-08-31T09:17:07;5.20;;;2.27;;
14768;SDS011;7476;49.404;11.152;2023-08-31T09:19:33;3.00;;;2.10;;
14768;SDS011;7476;49.404;11.152;2023-08-31T09:22:01;3.03;;;1.90;;
14768;SDS011;7476;49.404;11.152;2023-08-31T09:24:28;3.63;;;2.07;;
14768;SDS011;7476;49.404;11.152;2023-08-31T09:26:57;3.63;;;2.00;;
14768;SDS011;7476;49.404;11.152;2023-08-31T09:29:24;4.17;;;2.10;;
14768;SDS011;7476;49.404;11.152;2023-08-31T09:31:51;3.10;;;2.20;;
14768;SDS011;7476;49.404;11.152;2023-08-31T09:34:17;3.20;;;2.00;;
14768;SDS011;7476;49.404;11.152;2023-08-31T09:36:44;3.10;;;1.87;;
14768;SDS011;7476;49.404;11.152;2023-08-31T09:39:12;2.27;;;1.90;;
14768;SDS011;7476;49.404;11.152;2023-08-31T09:41:51;3.50;;;2.10;;
14768;SDS011;7476;49.404;11.152;2023-08-31T09:44:20;2.90;;;1.73;;
14768;SDS011;7476;49.404;11.152;2023-08-31T09:46:47;2.10;;;1.90;;
14768;SDS011;7476;49.404;11.152;2023-08-31T09:49:15;3.30;;;2.10;;
14768;SDS011;7476;49.404;11.152;2023-08-31T09:51:44;3.73;;;2.10;;
14768;SDS011;7476;49.404;11.152;2023-08-31T09:54:13;2.60;;;2.27;;
14768;SDS011;7476;49.404;11.152;2023-08-31T09:56:40;2.23;;;1.83;;
14768;SDS011;7476;49.404;11.152;2023-08-31T09:59:08;3.00;;;2.20;;
14768;SDS011;7476;49.404;11.152;2023-08-31T10:01:36;3.40;;;2.07;;
14768;SDS011;7476;49.404;11.152;2023-08-31T10:04:03;5.00;;;2.13;;
14768;SDS011;7476;49.404;11.152;2023-08-31T10:06:33;3.30;;;2.10;;
14768;SDS011;7476;49.404;11.152;2023-08-31T10:09:01;2.40;;;2.00;;
14768;SDS011;7476;49.404;11.152;2023-08-31T10:11:28;3.27;;;2.23;;
14768;SDS011;7476;49.404;11.152;2023-08-31T10:13:57;3.93;;;2.30;;
14768;SDS011;7476;49.404;11.152;2023-08-31T10:16:25;4.33;;;2.20;;
14768;SDS011;7476;49.404;11.152;2023-08-31T10:18:54;4.67;;;2.20;;
14768;SDS011;7476;49.404;11.152;2023-08-31T10:21:21;3.23;;;2.20;;
14768;SDS011;7476;49.404;11.152;2023-08-31T10:23:48;2.30;;;1.93;;
14768;SDS011;7476;49.404;11.152;2023-08-31T10:26:25;2.90;;;2.00;;
14768;SDS011;7476;49.404;11.152;2023-08-31T10:28:53;2.30;;;2.10;;
14768;SDS011;7476;49.404;11.152;2023-08-31T10:31:20;3.27;;;2.30;;
14768;SDS011;7476;49.404;11.152;2023-08-31T10:33:55;3.37;;;2.23;;
14768;SDS011;7476;49.404;11.152;2023-08-31T10:36:33;2.40;;;2.03;;
14768;SDS011;7476;49.404;11.152;2023-08-31T10:39:04;4.10;;;2.20;;
14768;SDS011;7476;49.404;11.152;2023-08-31T10:41:33;3.10;;;2.40;;
14768;SDS011;7476;49.404;11.152;2023-08-31T10:44:00;3.27;;;2.57;;
14768;SDS011;7476;49.404;11.152;2023-08-31T10:46:28;2.73;;;2.17;;
14768;SDS011;7476;49.404;11.152;2023-08-31T10:48:58;3.30;;;2.67;;
14768;SDS011;7476;49.404;11.152;2023-08-31T10:51:26;3.93;;;2.40;;
14768;SDS011;7476;49.404;11.152;2023-08-31T10:54:03;2.77;;;2.57;;
14768;SDS011;7476;49.404;11.152;2023-08-31T10:56:38;3.47;;;2.60;;
14768;SDS011;7476;49.404;11.152;2023-08-31T10:59:18;3.67;;;2.83;;
14768;SDS011;7476;49.404;11.152;2023-08-31T11:01:52;3.40;;;2.50;;
14768;SDS011;7476;49.404;11.152;2023-08-31T11:04:22;5.10;;;3.30;;
14768;SDS011;7476;49.404;11.152;2023-08-31T11:09:41;3.77;;;2.63;;
14768;SDS011;7476;49.404;11.152;2023-08-31T11:12:09;3.10;;;2.40;;
14768;SDS011;7476;49.404;11.152;2023-08-31T11:14:36;4.30;;;2.60;;
14768;SDS011;7476;49.404;11.152;2023-08-31T11:17:03;2.53;;;2.20;;
14768;SDS011;7476;49.404;11.152;2023-08-31T11:19:32;3.70;;;2.50;;
14768;SDS011;7476;49.404;11.152;2023-08-31T11:22:00;3.87;;;2.77;;
14768;SDS011;7476;49.404;11.152;2023-08-31T11:24:28;3.37;;;2.30;;
14768;SDS011;7476;49.404;11.152;2023-08-31T11:26:55;4.03;;;2.67;;
14768;SDS011;7476;49.404;11.152;2023-08-31T11:29:22;3.10;;;2.30;;
14768;SDS011;7476;49.404;11.152;2023-08-31T11:31:48;3.73;;;2.40;;
14768;SDS011;7476;49.404;11.152;2023-08-31T11:34:15;3.80;;;2.37;;
14768;SDS011;7476;49.404;11.152;2023-08-31T11:36:45;4.97;;;2.57;;
14768;SDS011;7476;49.404;11.152;2023-08-31T11:39:12;2.80;;;2.17;;
14768;SDS011;7476;49.404;11.152;2023-08-31T11:41:39;2.77;;;2.30;;
14768;SDS011;7476;49.404;11.152;2023-08-31T11:44:08;3.57;;;2.27;;
14768;SDS011;7476;49.404;11.152;2023-08-31T11:46:35;4.60;;;2.33;;
14768;SDS011;7476;49.404;11.152;2023-08-31T11:49:03;2.40;;;2.17;;
14768;SDS011;7476;49.404;11.152;2023-08-31T11:51:30;4.20;;;2.47;;
14768;SDS011;7476;49.404;11.152;2023-08-31T11:54:00;3.80;;;2.30;;
14768;SDS011;7476;49.404;11.152;2023-08-31T11:56:37;4.57;;;2.50;;
14768;SDS011;7476;49.404;11.152;2023-08-31T11:59:06;4.47;;;2.77;;
14768;SDS011;7476;49.404;11.152;2023-08-31T12:01:37;2.77;;;2.00;;
14768;SDS011;7476;49.404;11.152;2023-08-31T12:04:09;5.43;;;2.03;;
14768;SDS011;7476;49.404;11.152;2023-08-31T12:06:37;4.53;;;2.50;;
14768;SDS011;7476;49.404;11.152;2023-08-31T12:09:06;3.30;;;2.30;;
14768;SDS011;7476;49.404;11.152;2023-08-31T12:11:33;4.00;;;2.20;;
14768;SDS011;7476;49.404;11.152;2023-08-31T12:14:01;5.03;;;2.50;;
14768;SDS011;7476;49.404;11.152;2023-08-31T12:16:32;3.80;;;2.07;;
14768;SDS011;7476;49.404;11.152;2023-08-31T12:19:01;4.20;;;1.97;;
14768;SDS011;7476;49.404;11.152;2023-08-31T12:21:28;4.87;;;2.07;;
14768;SDS011;7476;49.404;11.152;2023-08-31T12:23:56;4.17;;;2.40;;
14768;SDS011;7476;49.404;11.152;2023-08-31T12:26:24;3.23;;;2.23;;
14768;SDS011;7476;49.404;11.152;2023-08-31T12:28:51;3.57;;;2.07;;
14768;SDS011;7476;49.404;11.152;2023-08-31T12:31:18;3.27;;;2.30;;
14768;SDS011;7476;49.404;11.152;2023-08-31T12:33:45;5.23;;;2.20;;
14768;SDS011;7476;49.404;11.152;2023-08-31T12:36:12;3.33;;;2.30;;
14768;SDS011;7476;49.404;11.152;2023-08-31T12:38:39;3.30;;;2.07;;
14768;SDS011;7476;49.404;11.152;2023-08-31T12:41:06;3.13;;;1.93;;
14768;SDS011;7476;49.404;11.152;2023-08-31T12:43:35;2.33;;;1.90;;
14768;SDS011;7476;49.404;11.152;2023-08-31T12:46:02;4.00;;;2.13;;
14768;SDS011;7476;49.404;11.152;2023-08-31T12:48:30;2.93;;;2.00;;
14768;SDS011;7476;49.404;11.152;2023-08-31T12:50:57;4.80;;;2.10;;
14768;SDS011;7476;49.404;11.152;2023-08-31T12:53:24;2.70;;;1.93;;
14768;SDS011;7476;49.404;11.152;2023-08-31T12:55:52;4.33;;;1.73;;
14768;SDS011;7476;49.404;11.152;2023-08-31T12:58:18;3.57;;;1.93;;
14768;SDS011;7476;49.404;11.152;2023-08-31T13:00:48;2.63;;;1.93;;
14768;SDS011;7476;49.404;11.152;2023-08-31T13:03:18;3.50;;;2.00;;
14768;SDS011;7476;49.404;11.152;2023-08-31T13:05:44;3.17;;;2.17;;
14768;SDS011;7476;49.404;11.152;2023-08-31T13:08:11;3.80;;;2.37;;
14768;SDS011;7476;49.404;11.152;2023-08-31T13:10:38;4.30;;;2.27;;
14768;SDS011;7476;49.404;11.152;2023-08-31T13:13:05;4.53;;;2.10;;
14768;SDS011;7476;49.404;11.152;2023-08-31T13:15:32;4.53;;;2.40;;
14768;SDS011;7476;49.404;11.152;2023-08-31T13:18:00;2.67;;;1.97;;
14768;SDS011;7476;49.404;11.152;2023-08-31T13:20:27;6.57;;;2.43;;
14768;SDS011;7476;49.404;11.152;2023-08-31T13:22:53;3.00;;;1.83;;
14768;SDS011;7476;49.404;11.152;2023-08-31T13:25:20;3.13;;;2.00;;
14768;SDS011;7476;49.404;11.152;2023-08-31T13:27:47;3.50;;;2.27;;
14768;SDS011;7476;49.404;11.152;2023-08-31T13:30:13;5.63;;;2.20;;
14768;SDS011;7476;49.404;11.152;2023-08-31T13:32:40;3.30;;;1.97;;
14768;SDS011;7476;49.404;11.152;2023-08-31T13:35:09;3.77;;;2.17;;
14768;SDS011;7476;49.404;11.152;2023-08-31T13:37:36;4.17;;;2.00;;
14768;SDS011;7476;49.404;11.152;2023-08-31T13:40:03;5.00;;;2.53;;
14768;SDS011;7476;49.404;11.152;2023-08-31T13:42:33;4.10;;;1.90;;
14768;SDS011;7476;49.404;11.152;2023-08-31T13:45:00;3.20;;;2.20;;
14768;SDS011;7476;49.404;11.152;2023-08-31T13:47:28;3.70;;;1.93;;
14768;SDS011;7476;49.404;11.152;2023-08-31T13:49:55;3.60;;;1.90;;
14768;SDS011;7476;49.404;11.152;2023-08-31T13:52:23;2.53;;;1.60;;
14768;SDS011;7476;49.404;11.152;2023-08-31T13:54:50;4.10;;;2.00;;
14768;SDS011;7476;49.404;11.152;2023-08-31T13:57:16;3.07;;;1.70;;
14768;SDS011;7476;49.404;11.152;2023-08-31T13:59:43;2.23;;;1.80;;
14768;SDS011;7476;49.404;11.152;2023-08-31T14:02:10;3.07;;;1.60;;
14768;SDS011;7476;49.404;11.152;2023-08-31T14:04:36;2.27;;;1.63;;
14768;SDS011;7476;49.404;11.152;2023-08-31T14:07:03;1.90;;;1.73;;
14768;SDS011;7476;49.404;11.152;2023-08-31T14:09:31;2.07;;;1.80;;
14768;SDS011;7476;49.404;11.152;2023-08-31T14:11:58;3.43;;;2.03;;
14768;SDS011;7476;49.404;11.152;2023-08-31T14:14:24;3.53;;;1.90;;
14768;SDS011;7476;49.404;11.152;2023-08-31T14:16:51;3.37;;;1.77;;
14768;SDS011;7476;49.404;11.152;2023-08-31T14:19:18;2.53;;;1.80;;
14768;SDS011;7476;49.404;11.152;2023-08-31T14:21:45;1.80;;;1.70;;
14768;SDS011;7476;49.404;11.152;2023-08-31T14:24:13;2.97;;;1.90;;
14768;SDS011;7476;49.404;11.152;2023-08-31T14:26:43;3.43;;;2.10;;
14768;SDS011;7476;49.404;11.152;2023-08-31T14:29:09;3.00;;;2.17;;
14768;SDS011;7476;49.404;11.152;2023-08-31T14:31:36;2.93;;;2.20;;
14768;SDS011;7476;49.404;11.152;2023-08-31T14:34:03;2.47;;;1.90;;
14768;SDS011;7476;49.404;11.152;2023-08-31T14:36:30;3.50;;;1.90;;
14768;SDS011;7476;49.404;11.152;2023-08-31T14:38:56;4.33;;;2.00;;
14768;SDS011;7476;49.404;11.152;2023-08-31T14:41:23;2.80;;;1.93;;
14768;SDS011;7476;49.404;11.152;2023-08-31T14:43:51;4.10;;;2.10;;
14768;SDS011;7476;49.404;11.152;2023-08-31T14:46:18;4.07;;;1.87;;
14768;SDS011;7476;49.404;11.152;2023-08-31T14:48:44;5.07;;;2.17;;
14768;SDS011;7476;49.404;11.152;2023-08-31T14:51:11;2.90;;;2.03;;